CheckWX is a tool to help pilots better visualize weather data.  It is not intended as a substitute for an official pre-flight weather briefing.

17:08:22 UTC

EGVN METAR
RAF Brize Norton Airport
Brize Norton, United Kingdom
Current

47 mins ago

EGVN 211621Z 23007KT 9999 FEW035 SCT045 BKN250 22/13 Q1020 NOSIG RMK BLU BLU
Observed
Jul-21 @ 16:21 UTC
Wind
  • 230° at 7 KTS
Visibility
10,000+ meters
Flight Rules
VFR
Cloud Levels
  • Few at 3,500' AGL
  • Scattered at 4,500' AGL
  • Broken at 25,000' AGL
Temperature
22°C / 72°F
Dewpoint
13°C / 55°F
Humidity
57%
Altimeter
30.12" Hg
Pressure
1019.92 hPa
Previous

1 hour ago

EGVN 211550Z 23008KT 9999 FEW035 BKN050 21/13 Q1020 NOSIG RMK BLU BLU
Observed
Jul-21 @ 15:50 UTC
Wind
  • 230° at 8 KTS
Visibility
10,000+ meters
Flight Rules
VFR
Cloud Levels
  • Few at 3,500' AGL
  • Broken at 5,000' AGL
Temperature
21°C / 70°F
Dewpoint
13°C / 55°F
Humidity
60%
Altimeter
30.12" Hg
Pressure
1019.92 hPa
Previous

2 hours ago

EGVN 211520Z 24006KT 9999 FEW032 BKN050 22/14 Q1020 NOSIG RMK BLU BLU
Observed
Jul-21 @ 15:20 UTC
Wind
  • 240° at 6 KTS
Visibility
10,000+ meters
Flight Rules
VFR
Cloud Levels
  • Few at 3,200' AGL
  • Broken at 5,000' AGL
Temperature
22°C / 72°F
Dewpoint
14°C / 57°F
Humidity
61%
Altimeter
30.12" Hg
Pressure
1019.92 hPa